createdAt,value
2023-01-28T00:00:28.186Z,85.96
2023-01-28T00:01:00.635Z,85.12
2023-01-28T00:01:33.103Z,84.60
2023-01-28T00:02:05.539Z,86.27
2023-01-28T00:02:38.008Z,87.20
2023-01-28T00:03:10.436Z,88.56
2023-01-28T00:03:43.005Z,88.35
2023-01-28T00:04:15.425Z,88.87
2023-01-28T00:04:47.875Z,89.60
2023-01-28T00:05:20.345Z,91.06
2023-01-28T00:05:52.813Z,90.85
2023-01-28T00:06:25.245Z,92.83
2023-01-28T00:06:57.697Z,92.83
2023-01-28T00:07:30.146Z,92.72
2023-01-28T00:08:02.603Z,90.95
2023-01-28T00:08:35.068Z,90.64
2023-01-28T00:09:07.530Z,90.22
2023-01-28T00:09:39.974Z,89.50
2023-01-28T00:10:12.522Z,88.76
2023-01-28T00:10:44.938Z,88.76
2023-01-28T00:11:17.384Z,90.85
2023-01-28T00:11:49.814Z,91.33
2023-01-28T00:12:22.304Z,91.78
2023-01-28T00:12:54.721Z,91.43
2023-01-28T00:13:27.179Z,91.47
2023-01-28T00:13:59.613Z,91.96
2023-01-28T00:14:32.093Z,91.06
2023-01-28T00:15:04.546Z,92.10
2023-01-28T00:15:36.985Z,92.10
2023-01-28T00:16:09.448Z,91.37
2023-01-28T00:16:41.859Z,90.64
2023-01-28T00:17:14.347Z,91.06
2023-01-28T00:17:46.787Z,92.10
2023-01-28T00:18:19.218Z,92.31
2023-01-28T00:18:51.669Z,92.41
2023-01-28T00:19:24.125Z,92.21
2023-01-28T00:19:56.619Z,92.93
2023-01-28T00:20:29.047Z,92.52
2023-01-28T00:21:01.487Z,91.47
2023-01-28T00:21:33.926Z,92.21
2023-01-28T00:22:06.380Z,92.62
2023-01-28T00:22:38.928Z,93.24
2023-01-28T00:23:11.363Z,93.14
2023-01-28T00:23:43.782Z,93.04
2023-01-28T00:24:16.352Z,92.62
2023-01-28T00:24:48.783Z,92.47
2023-01-28T00:25:21.264Z,91.89
2023-01-28T00:25:53.937Z,89.81
2023-01-28T00:26:26.520Z,88.66
2023-01-28T00:26:58.978Z,88.45
2023-01-28T00:27:31.413Z,87.93
2023-01-28T00:28:03.867Z,87.20
2023-01-28T00:28:36.301Z,88.04
2023-01-28T00:29:08.814Z,87.62
2023-01-28T00:29:41.333Z,88.35
2023-01-28T00:30:13.821Z,87.83
2023-01-28T00:30:46.303Z,88.66
2023-01-28T00:31:18.746Z,92.21
2023-01-28T00:31:51.225Z,93.04
2023-01-28T00:32:23.598Z,93.98
2023-01-28T00:32:56.058Z,94.18
2023-01-28T00:33:28.486Z,92.21
2023-01-28T00:34:00.961Z,90.33
2023-01-28T00:34:33.403Z,90.12
2023-01-28T00:35:05.825Z,91.89
2023-01-28T00:35:38.382Z,91.37
2023-01-28T00:36:10.798Z,90.95
2023-01-28T00:36:43.255Z,90.44
2023-01-28T00:37:15.717Z,91.68
2023-01-28T00:37:48.157Z,93.35
2023-01-28T00:38:20.579Z,93.04
2023-01-28T00:38:53.075Z,93.24
2023-01-28T00:39:25.534Z,92.93
2023-01-28T00:39:57.984Z,92.21
2023-01-28T00:40:30.411Z,90.85
2023-01-28T00:41:02.900Z,89.50
2023-01-28T00:41:35.319Z,89.50
2023-01-28T00:42:07.785Z,88.98
2023-01-28T00:42:40.222Z,87.52
2023-01-28T00:43:12.692Z,87.20
2023-01-28T00:43:45.194Z,86.68
2023-01-28T00:44:17.795Z,86.06
2023-01-28T00:44:50.284Z,85.53
2023-01-28T00:45:22.753Z,84.91
2023-01-28T00:45:55.190Z,86.68
2023-01-28T00:46:27.654Z,88.98
2023-01-28T00:47:00.093Z,88.04
2023-01-28T00:47:32.492Z,86.16
2023-01-28T00:48:04.925Z,85.22
2023-01-28T00:48:37.362Z,85.12
2023-01-28T00:49:09.782Z,85.64
2023-01-28T00:49:42.203Z,86.68
2023-01-28T00:50:14.651Z,86.58
2023-01-28T00:50:47.113Z,85.74
2023-01-28T00:51:19.546Z,86.58
2023-01-28T00:51:52.032Z,88.04
2023-01-28T00:52:24.451Z,89.29
2023-01-28T00:52:56.915Z,90.85
2023-01-28T00:53:29.372Z,89.08
2023-01-28T00:54:01.822Z,86.79
2023-01-28T00:54:34.267Z,84.81
2023-01-28T00:55:06.731Z,84.08
2023-01-28T00:55:39.224Z,83.87
2023-01-28T00:56:11.635Z,83.66
2023-01-28T00:56:44.106Z,83.56
2023-01-28T00:57:16.536Z,83.66
2023-01-28T00:57:48.986Z,83.66
2023-01-28T00:58:21.426Z,84.28
2023-01-28T00:58:53.847Z,83.97
2023-01-28T00:59:26.293Z,83.87
2023-01-28T00:59:58.717Z,83.87
2023-01-28T01:00:31.166Z,84.50
2023-01-28T01:01:03.609Z,84.70
2023-01-28T01:01:36.154Z,85.12
2023-01-28T01:02:08.625Z,86.83
2023-01-28T01:02:42.031Z,87.20
2023-01-28T01:03:13.458Z,86.30
2023-01-28T01:03:45.904Z,85.47
2023-01-28T01:04:18.350Z,85.05
2023-01-28T01:04:50.785Z,84.12
2023-01-28T01:05:23.265Z,84.84
2023-01-28T01:05:55.685Z,84.95
2023-01-28T01:06:28.185Z,84.95
2023-01-28T01:07:00.601Z,86.41
2023-01-28T01:07:33.053Z,85.68
2023-01-28T01:08:05.471Z,84.64
2023-01-28T01:08:37.933Z,83.80
2023-01-28T01:09:10.421Z,83.49
2023-01-28T01:09:42.883Z,83.39
2023-01-28T01:10:15.327Z,82.65
2023-01-28T01:10:47.832Z,82.65
2023-01-28T01:11:20.281Z,84.12
2023-01-28T01:11:52.762Z,84.64
2023-01-28T01:12:25.194Z,84.01
2023-01-28T01:12:57.701Z,82.97
2023-01-28T01:13:30.187Z,82.76
2023-01-28T01:14:02.653Z,82.55
2023-01-28T01:14:35.084Z,82.24
2023-01-28T01:15:07.623Z,82.87
2023-01-28T01:15:40.199Z,82.55
2023-01-28T01:16:12.571Z,82.34
2023-01-28T01:16:44.928Z,82.76
2023-01-28T01:17:17.361Z,82.45
2023-01-28T01:17:49.882Z,81.93
2023-01-28T01:18:22.297Z,81.82
2023-01-28T01:18:54.767Z,82.24
2023-01-28T01:19:27.183Z,82.24
2023-01-28T01:19:59.649Z,82.65
2023-01-28T01:20:32.086Z,83.18
2023-01-28T01:21:04.522Z,82.65
2023-01-28T01:21:36.959Z,82.03
2023-01-28T01:22:09.381Z,81.93
2023-01-28T01:22:41.838Z,81.82
2023-01-28T01:23:14.263Z,81.82
2023-01-28T01:23:46.728Z,82.24
2023-01-28T01:24:19.195Z,83.80
2023-01-28T01:24:51.589Z,84.64
2023-01-28T01:25:24.018Z,83.70
2023-01-28T01:25:56.492Z,84.95
2023-01-28T01:26:28.946Z,85.68
2023-01-28T01:27:01.383Z,85.78
2023-01-28T01:27:33.848Z,86.10
2023-01-28T01:28:06.325Z,87.97
2023-01-28T01:28:38.806Z,88.29
2023-01-28T01:29:11.252Z,88.08
2023-01-28T01:29:43.699Z,88.29
2023-01-28T01:30:16.114Z,88.39
2023-01-28T01:30:48.553Z,88.08
2023-01-28T01:31:21.055Z,86.30
2023-01-28T01:31:53.401Z,84.33
2023-01-28T01:32:25.869Z,83.80
2023-01-28T01:32:58.291Z,84.22
2023-01-28T01:33:30.737Z,83.70
2023-01-28T01:34:03.188Z,83.07
2023-01-28T01:34:35.599Z,83.07
2023-01-28T01:35:08.022Z,83.18
2023-01-28T01:35:40.458Z,83.28
2023-01-28T01:36:12.934Z,86.51
2023-01-28T01:36:45.349Z,88.18
2023-01-28T01:37:17.898Z,88.18
2023-01-28T01:37:50.318Z,87.97
2023-01-28T01:38:22.772Z,87.97
2023-01-28T01:38:55.341Z,87.35
2023-01-28T01:39:27.664Z,86.61
2023-01-28T01:40:00.145Z,85.58
2023-01-28T01:40:32.573Z,84.53
2023-01-28T01:41:05.056Z,84.74
2023-01-28T01:41:37.480Z,84.22
2023-01-28T01:42:09.945Z,83.70
2023-01-28T01:42:42.429Z,84.74
2023-01-28T01:43:14.912Z,85.05
2023-01-28T01:43:47.325Z,84.01
2023-01-28T01:44:19.781Z,83.39
2023-01-28T01:44:52.238Z,82.24
2023-01-28T01:45:24.698Z,81.86
2023-01-28T01:45:57.148Z,81.96
2023-01-28T01:46:29.610Z,82.28
2023-01-28T01:47:02.069Z,81.96
2023-01-28T01:47:34.501Z,82.28
2023-01-28T01:48:07.006Z,83.11
2023-01-28T01:48:39.471Z,83.01
2023-01-28T01:49:11.917Z,83.11
2023-01-28T01:49:44.353Z,84.16
2023-01-28T01:50:16.834Z,84.16
2023-01-28T01:50:49.284Z,84.57
2023-01-28T01:51:21.797Z,84.47
2023-01-28T01:51:54.250Z,83.63
2023-01-28T01:52:26.760Z,82.70
2023-01-28T01:52:59.207Z,82.38
2023-01-28T01:53:31.653Z,82.17
2023-01-28T01:54:04.133Z,82.38
2023-01-28T01:54:36.602Z,83.11
2023-01-28T01:55:09.060Z,85.10
2023-01-28T01:55:41.512Z,85.51
2023-01-28T01:56:14.021Z,84.67
2023-01-28T01:56:46.480Z,83.74
2023-01-28T01:57:18.906Z,83.01
2023-01-28T01:57:51.362Z,82.59
2023-01-28T01:58:23.822Z,83.84
2023-01-28T01:58:56.260Z,84.78
2023-01-28T01:59:28.700Z,84.36
2023-01-28T02:00:01.138Z,83.84
2023-01-28T02:00:33.561Z,83.74
2023-01-28T02:01:06.598Z,83.91
2023-01-28T02:01:39.056Z,86.83
2023-01-28T02:02:11.594Z,88.08
2023-01-28T02:02:44.022Z,87.76
2023-01-28T02:03:16.474Z,87.45
2023-01-28T02:03:48.933Z,87.55
2023-01-28T02:04:21.317Z,87.76
2023-01-28T02:04:53.794Z,86.72
2023-01-28T02:05:26.247Z,85.16
2023-01-28T02:05:58.721Z,84.22
2023-01-28T02:06:31.145Z,83.39
2023-01-28T02:07:03.600Z,83.07
2023-01-28T02:07:36.024Z,83.80
2023-01-28T02:08:08.509Z,86.10
2023-01-28T02:08:40.995Z,87.66
2023-01-28T02:09:13.452Z,86.30
2023-01-28T02:09:45.912Z,84.01
2023-01-28T02:10:18.344Z,82.76
2023-01-28T02:10:50.846Z,82.03
2023-01-28T02:11:23.321Z,81.96
2023-01-28T02:11:55.774Z,82.28
2023-01-28T02:12:28.198Z,82.38
2023-01-28T02:13:00.700Z,82.97
2023-01-28T02:13:33.152Z,83.70
2023-01-28T02:14:05.593Z,84.12
2023-01-28T02:14:38.077Z,84.22
2023-01-28T02:15:10.505Z,84.53
2023-01-28T02:15:42.970Z,85.26
2023-01-28T02:16:15.512Z,85.78
2023-01-28T02:16:47.931Z,85.89
2023-01-28T02:17:20.363Z,86.61
2023-01-28T02:17:52.850Z,87.55
2023-01-28T02:18:25.277Z,87.55
2023-01-28T02:18:57.795Z,87.04
2023-01-28T02:19:30.233Z,87.97
2023-01-28T02:20:02.759Z,88.91
2023-01-28T02:20:35.228Z,88.18
2023-01-28T02:21:07.692Z,87.14
2023-01-28T02:21:40.173Z,86.93
2023-01-28T02:22:12.624Z,89.22
2023-01-28T02:22:45.138Z,90.68
2023-01-28T02:23:17.575Z,92.25
2023-01-28T02:23:50.028Z,91.52
2023-01-28T02:24:22.571Z,89.85
2023-01-28T02:24:54.967Z,89.12
2023-01-28T02:25:27.413Z,87.35
2023-01-28T02:25:59.952Z,86.83
2023-01-28T02:26:32.396Z,86.83
2023-01-28T02:27:04.852Z,87.87
2023-01-28T02:27:37.291Z,89.75
2023-01-28T02:28:09.753Z,90.89
2023-01-28T02:28:42.221Z,92.66
2023-01-28T02:29:14.754Z,93.60
2023-01-28T02:29:47.231Z,93.29
2023-01-28T02:30:19.719Z,92.35
2023-01-28T02:30:52.249Z,91.52
2023-01-28T02:31:24.683Z,90.16
2023-01-28T02:31:57.157Z,88.70
2023-01-28T02:32:29.571Z,88.18
2023-01-28T02:33:02.009Z,87.45
2023-01-28T02:33:34.424Z,86.41
2023-01-28T02:34:06.940Z,85.99
2023-01-28T02:34:39.410Z,86.61
2023-01-28T02:35:11.888Z,87.55
2023-01-28T02:35:44.340Z,86.51
2023-01-28T02:36:16.819Z,84.64
2023-01-28T02:36:49.357Z,83.42
2023-01-28T02:37:21.856Z,83.07
2023-01-28T02:37:54.287Z,82.80
2023-01-28T02:38:26.768Z,82.48
2023-01-28T02:38:59.223Z,82.48
2023-01-28T02:39:31.676Z,83.11
2023-01-28T02:40:04.146Z,83.91
2023-01-28T02:40:36.670Z,84.16
2023-01-28T02:41:09.157Z,85.41
2023-01-28T02:41:41.614Z,87.45
2023-01-28T02:42:14.125Z,88.81
2023-01-28T02:42:46.588Z,89.32
2023-01-28T02:43:19.029Z,90.58
2023-01-28T02:43:51.527Z,90.89
2023-01-28T02:44:23.945Z,90.26
2023-01-28T02:44:56.462Z,89.32
2023-01-28T02:45:28.907Z,87.24
2023-01-28T02:46:01.443Z,85.99
2023-01-28T02:46:33.872Z,86.13
2023-01-28T02:47:06.279Z,87.24
2023-01-28T02:47:38.738Z,88.49
2023-01-28T02:48:11.218Z,87.49
2023-01-28T02:48:43.716Z,85.47
2023-01-28T02:49:16.165Z,84.57
2023-01-28T02:49:48.740Z,84.64
2023-01-28T02:50:21.113Z,84.64
2023-01-28T02:50:53.690Z,84.12
2023-01-28T02:51:26.181Z,83.49
2023-01-28T02:51:58.648Z,83.59
2023-01-28T02:52:31.116Z,84.53
2023-01-28T02:53:03.578Z,86.51
2023-01-28T02:53:36.019Z,88.18
2023-01-28T02:54:08.459Z,89.12
2023-01-28T02:54:40.913Z,91.10
2023-01-28T02:55:13.824Z,91.31
2023-01-28T02:55:45.948Z,90.37
2023-01-28T02:56:18.398Z,91.31
2023-01-28T02:56:50.876Z,91.10
2023-01-28T02:57:23.398Z,91.52
2023-01-28T02:57:55.870Z,91.20
2023-01-28T02:58:28.317Z,89.85
2023-01-28T02:59:00.802Z,91.83
2023-01-28T02:59:33.254Z,93.18
2023-01-28T03:00:05.707Z,91.93
2023-01-28T03:00:38.187Z,92.87
2023-01-28T03:01:10.792Z,92.66
2023-01-28T03:01:43.267Z,92.25
2023-01-28T03:02:15.731Z,91.93
2023-01-28T03:02:48.102Z,91.93
2023-01-28T03:03:20.581Z,92.77
2023-01-28T03:03:53.050Z,92.25
2023-01-28T03:04:25.536Z,91.62
2023-01-28T03:04:58.012Z,91.10
2023-01-28T03:05:30.511Z,90.89
2023-01-28T03:06:02.963Z,90.37
2023-01-28T03:06:35.443Z,91.00
2023-01-28T03:07:07.872Z,91.31
2023-01-28T03:07:40.342Z,90.68
2023-01-28T03:08:12.799Z,92.66
2023-01-28T03:08:45.264Z,93.18
2023-01-28T03:09:17.720Z,92.14
2023-01-28T03:09:50.192Z,88.81
2023-01-28T03:10:22.664Z,87.76
2023-01-28T03:10:55.116Z,88.70
2023-01-28T03:11:27.650Z,91.31
2023-01-28T03:12:00.116Z,90.89
2023-01-28T03:12:32.561Z,91.41
2023-01-28T03:13:05.005Z,91.41
2023-01-28T03:13:37.583Z,90.89
2023-01-28T03:14:10.020Z,88.91
2023-01-28T03:14:42.483Z,88.49
2023-01-28T03:15:15.232Z,88.70
2023-01-28T03:15:47.410Z,87.76
2023-01-28T03:16:19.914Z,86.87
2023-01-28T03:16:52.350Z,87.14
2023-01-28T03:17:26.586Z,88.12
2023-01-28T03:17:57.231Z,88.49
2023-01-28T03:18:29.705Z,87.70
2023-01-28T03:19:02.185Z,87.55
2023-01-28T03:19:34.621Z,87.70
2023-01-28T03:20:07.149Z,87.55
2023-01-28T03:20:39.589Z,86.45
2023-01-28T03:21:12.012Z,85.51
2023-01-28T03:21:44.452Z,86.24
2023-01-28T03:22:16.892Z,87.66
2023-01-28T03:22:49.447Z,88.70
2023-01-28T03:23:21.911Z,89.54
2023-01-28T03:23:54.414Z,88.91
2023-01-28T03:24:26.905Z,88.49
2023-01-28T03:24:59.275Z,88.18
2023-01-28T03:25:31.717Z,87.45
2023-01-28T03:26:04.186Z,88.18
2023-01-28T03:26:36.680Z,87.55
2023-01-28T03:27:09.184Z,86.51
2023-01-28T03:27:41.708Z,85.78
2023-01-28T03:28:14.195Z,86.41
2023-01-28T03:28:46.727Z,87.76
2023-01-28T03:29:19.189Z,88.81
2023-01-28T03:29:51.736Z,89.85
2023-01-28T03:30:24.259Z,89.95
2023-01-28T03:30:56.888Z,89.85
2023-01-28T03:31:29.302Z,90.58
2023-01-28T03:32:01.858Z,90.16
2023-01-28T03:32:34.323Z,90.06
2023-01-28T03:33:06.846Z,89.85
2023-01-28T03:33:39.316Z,89.64
2023-01-28T03:34:11.813Z,91.10
2023-01-28T03:34:44.288Z,90.79
2023-01-28T03:35:17.082Z,90.47
2023-01-28T03:35:49.287Z,91.20
2023-01-28T03:36:21.805Z,91.83
2023-01-28T03:36:54.296Z,92.66
2023-01-28T03:37:26.766Z,93.18
2023-01-28T03:37:59.399Z,93.40
2023-01-28T03:38:31.892Z,93.91
2023-01-28T03:39:04.432Z,93.91
2023-01-28T03:39:36.957Z,93.91
2023-01-28T03:40:09.417Z,93.18
2023-01-28T03:40:41.893Z,92.87
2023-01-28T03:41:14.361Z,92.46
2023-01-28T03:41:46.895Z,91.31
2023-01-28T03:42:19.381Z,90.68
2023-01-28T03:42:51.901Z,89.85
2023-01-28T03:43:24.569Z,88.70
2023-01-28T03:43:57.076Z,88.91
2023-01-28T03:44:29.550Z,89.54
2023-01-28T03:45:02.008Z,88.39
2023-01-28T03:45:34.560Z,88.39
2023-01-28T03:46:07.242Z,88.12
2023-01-28T03:46:39.774Z,88.01
2023-01-28T03:47:12.199Z,88.01
2023-01-28T03:47:44.830Z,87.70
2023-01-28T03:48:17.492Z,88.01
2023-01-28T03:48:50.044Z,88.29
2023-01-28T03:49:22.840Z,87.66
2023-01-28T03:49:55.357Z,87.76
2023-01-28T03:50:27.902Z,87.76
2023-01-28T03:51:00.529Z,87.76
2023-01-28T03:51:33.040Z,87.81
2023-01-28T03:52:05.588Z,86.76
2023-01-28T03:52:38.258Z,86.51
2023-01-28T03:53:10.756Z,86.72
2023-01-28T03:53:43.369Z,86.72
2023-01-28T03:54:15.953Z,86.51
2023-01-28T03:54:48.684Z,87.76
2023-01-28T03:55:21.240Z,89.43
2023-01-28T03:55:53.766Z,90.26
2023-01-28T03:56:26.251Z,91.93
2023-01-28T03:56:59.071Z,92.14
2023-01-28T03:57:31.737Z,91.10
2023-01-28T03:58:04.201Z,90.79
2023-01-28T03:58:36.679Z,90.06
2023-01-28T03:59:09.127Z,90.06
2023-01-28T03:59:41.554Z,90.06
2023-01-28T04:00:14.041Z,89.75
2023-01-28T04:00:46.513Z,88.81
2023-01-28T04:01:18.963Z,88.49
2023-01-28T04:01:51.661Z,88.60
2023-01-28T04:02:24.125Z,88.64
2023-01-28T04:02:56.598Z,89.12
2023-01-28T04:03:28.986Z,89.54
2023-01-28T04:04:01.450Z,90.47
2023-01-28T04:04:33.893Z,90.58
2023-01-28T04:05:06.323Z,90.16
2023-01-28T04:05:38.767Z,89.01
2023-01-28T04:06:11.200Z,88.91
2023-01-28T04:06:43.637Z,88.60
2023-01-28T04:07:16.077Z,87.14
2023-01-28T04:07:48.646Z,86.72
2023-01-28T04:08:21.100Z,86.72
2023-01-28T04:08:53.581Z,86.10
2023-01-28T04:09:25.954Z,85.68
2023-01-28T04:09:58.405Z,85.99
2023-01-28T04:10:30.854Z,85.99
2023-01-28T04:11:03.327Z,85.26
2023-01-28T04:11:35.863Z,85.36
2023-01-28T04:12:08.299Z,86.41
2023-01-28T04:12:40.770Z,87.04
2023-01-28T04:13:13.590Z,87.45
2023-01-28T04:13:45.657Z,88.39
2023-01-28T04:14:18.168Z,89.43
2023-01-28T04:14:50.636Z,89.95
2023-01-28T04:15:23.085Z,88.70
2023-01-28T04:15:55.613Z,87.24
2023-01-28T04:16:28.124Z,86.83
2023-01-28T04:17:00.541Z,86.41
2023-01-28T04:17:33.114Z,85.26
2023-01-28T04:18:05.642Z,85.36
2023-01-28T04:18:38.098Z,86.30
2023-01-28T04:19:10.534Z,86.51
2023-01-28T04:19:42.995Z,86.20
2023-01-28T04:20:15.439Z,86.20
2023-01-28T04:20:47.879Z,87.55
2023-01-28T04:21:20.325Z,88.29
2023-01-28T04:21:52.786Z,87.45
2023-01-28T04:22:25.221Z,86.20
2023-01-28T04:22:57.717Z,85.78
2023-01-28T04:23:30.198Z,84.43
2023-01-28T04:24:02.713Z,84.01
2023-01-28T04:24:35.113Z,83.80
2023-01-28T04:25:07.577Z,85.05
2023-01-28T04:25:40.011Z,86.41
2023-01-28T04:26:12.456Z,87.45
2023-01-28T04:26:44.932Z,90.26
2023-01-28T04:27:17.353Z,92.56
2023-01-28T04:27:49.929Z,92.97
2023-01-28T04:28:22.348Z,91.31
2023-01-28T04:28:54.807Z,89.75
2023-01-28T04:29:27.286Z,88.49
2023-01-28T04:29:59.794Z,87.35
2023-01-28T04:30:32.277Z,88.18
2023-01-28T04:31:04.846Z,89.12
2023-01-28T04:31:37.190Z,89.54
2023-01-28T04:32:11.523Z,89.64
2023-01-28T04:32:42.045Z,89.54
2023-01-28T04:33:14.548Z,89.12
2023-01-28T04:33:46.976Z,88.91
2023-01-28T04:34:19.406Z,89.54
2023-01-28T04:34:51.882Z,89.85
2023-01-28T04:35:24.384Z,88.70
2023-01-28T04:35:56.857Z,88.39
2023-01-28T04:36:29.282Z,88.91
2023-01-28T04:37:01.721Z,89.64
2023-01-28T04:37:34.174Z,91.10
2023-01-28T04:38:06.709Z,91.00
2023-01-28T04:38:39.142Z,91.62
2023-01-28T04:39:11.617Z,91.10
2023-01-28T04:39:44.123Z,91.83
2023-01-28T04:40:16.565Z,91.62
2023-01-28T04:40:49.051Z,90.68
2023-01-28T04:41:21.477Z,90.26
2023-01-28T04:41:53.955Z,91.10
2023-01-28T04:42:26.402Z,92.03
2023-01-28T04:42:58.920Z,90.06
2023-01-28T04:43:31.369Z,89.54
2023-01-28T04:44:03.825Z,91.93
2023-01-28T04:44:36.285Z,92.77
2023-01-28T04:45:08.701Z,90.31
2023-01-28T04:45:41.150Z,90.10
2023-01-28T04:46:13.755Z,90.31
2023-01-28T04:46:46.146Z,90.62
2023-01-28T04:47:18.579Z,90.41
2023-01-28T04:47:51.165Z,89.58
2023-01-28T04:48:23.691Z,89.58
2023-01-28T04:48:56.130Z,90.52
2023-01-28T04:49:28.593Z,91.46
2023-01-28T04:50:01.091Z,91.14
2023-01-28T04:50:33.517Z,89.47
2023-01-28T04:51:06.000Z,88.22
2023-01-28T04:51:38.474Z,89.58
2023-01-28T04:52:10.924Z,91.35
2023-01-28T04:52:43.417Z,91.77
2023-01-28T04:53:15.899Z,91.56
2023-01-28T04:53:48.350Z,91.56
2023-01-28T04:54:20.822Z,91.97
2023-01-28T04:54:53.241Z,92.50
2023-01-28T04:55:25.680Z,92.91
2023-01-28T04:55:58.274Z,94.58
2023-01-28T04:56:30.709Z,94.27
2023-01-28T04:57:03.148Z,92.91
2023-01-28T04:57:35.618Z,91.66
2023-01-28T04:58:08.140Z,90.72
2023-01-28T04:58:40.620Z,89.26
2023-01-28T04:59:13.116Z,88.95
2023-01-28T04:59:45.546Z,89.47
2023-01-28T05:00:18.060Z,90.20
2023-01-28T05:00:50.503Z,91.56
2023-01-28T05:01:22.957Z,92.08
2023-01-28T05:01:55.444Z,92.18
2023-01-28T05:02:27.885Z,91.87
2023-01-28T05:03:00.379Z,91.87
2023-01-28T05:03:34.649Z,91.46
2023-01-28T05:04:05.286Z,91.04
2023-01-28T05:04:37.769Z,90.72
2023-01-28T05:05:10.198Z,90.93
2023-01-28T05:05:42.653Z,91.46
2023-01-28T05:06:15.106Z,90.31
2023-01-28T05:06:47.565Z,90.26
2023-01-28T05:07:19.999Z,89.95
2023-01-28T05:07:52.427Z,90.58
2023-01-28T05:08:24.877Z,90.79
2023-01-28T05:08:57.314Z,91.41
2023-01-28T05:09:29.732Z,91.52
2023-01-28T05:10:02.161Z,91.10
2023-01-28T05:10:34.599Z,89.85
2023-01-28T05:11:07.087Z,88.70
2023-01-28T05:11:39.518Z,87.45
2023-01-28T05:12:11.964Z,86.51
2023-01-28T05:12:44.445Z,85.99
2023-01-28T05:13:16.873Z,85.89
2023-01-28T05:13:49.334Z,87.04
2023-01-28T05:14:21.744Z,87.66
2023-01-28T05:14:54.184Z,87.24
2023-01-28T05:15:26.631Z,87.04
2023-01-28T05:15:59.109Z,86.72
2023-01-28T05:16:31.527Z,86.72
2023-01-28T05:17:03.985Z,86.61
2023-01-28T05:17:36.458Z,85.89
2023-01-28T05:18:08.917Z,85.16
2023-01-28T05:18:43.091Z,89.01
2023-01-28T05:19:13.766Z,91.41
2023-01-28T05:19:46.213Z,91.83
2023-01-28T05:20:18.674Z,90.47
2023-01-28T05:20:51.278Z,89.12
2023-01-28T05:21:23.790Z,87.66
2023-01-28T05:21:56.251Z,85.41
2023-01-28T05:22:28.693Z,84.74
2023-01-28T05:23:01.180Z,85.61
2023-01-28T05:23:33.651Z,86.93
2023-01-28T05:24:06.141Z,88.08
2023-01-28T05:24:38.554Z,88.49
2023-01-28T05:25:11.039Z,88.91
2023-01-28T05:25:43.503Z,89.54
2023-01-28T05:26:15.934Z,89.75
2023-01-28T05:26:48.417Z,90.06
2023-01-28T05:27:20.892Z,89.95
2023-01-28T05:27:53.354Z,90.37
2023-01-28T05:28:25.844Z,90.79
2023-01-28T05:28:58.393Z,90.79
2023-01-28T05:29:30.908Z,91.72
2023-01-28T05:30:03.355Z,92.35
2023-01-28T05:30:35.856Z,92.25
2023-01-28T05:31:08.283Z,92.77
2023-01-28T05:31:40.712Z,92.77
2023-01-28T05:32:13.204Z,92.46
2023-01-28T05:32:45.699Z,91.10
2023-01-28T05:33:18.131Z,90.06
2023-01-28T05:33:50.600Z,87.28
2023-01-28T05:34:23.001Z,84.88
2023-01-28T05:34:55.429Z,85.72
2023-01-28T05:35:27.853Z,86.76
2023-01-28T05:36:00.724Z,87.39
2023-01-28T05:36:33.175Z,87.49
2023-01-28T05:37:05.668Z,87.49
2023-01-28T05:37:38.133Z,87.76
2023-01-28T05:38:10.585Z,87.97
2023-01-28T05:38:43.053Z,87.45
2023-01-28T05:39:15.479Z,87.24
2023-01-28T05:39:47.919Z,85.93
2023-01-28T05:40:20.496Z,84.57
2023-01-28T05:40:52.941Z,83.74
2023-01-28T05:41:25.384Z,83.01
2023-01-28T05:41:57.819Z,83.32
2023-01-28T05:42:30.316Z,83.74
2023-01-28T05:43:02.779Z,83.63
2023-01-28T05:43:35.299Z,83.63
2023-01-28T05:44:07.765Z,84.16
2023-01-28T05:44:40.280Z,84.88
2023-01-28T05:45:12.977Z,84.74
2023-01-28T05:45:45.197Z,83.22
2023-01-28T05:46:17.622Z,85.16
2023-01-28T05:46:50.076Z,87.35
2023-01-28T05:47:22.508Z,86.76
2023-01-28T05:47:54.954Z,85.10
2023-01-28T05:48:27.382Z,83.42
2023-01-28T05:48:59.863Z,84.05
2023-01-28T05:49:32.299Z,83.32
2023-01-28T05:50:04.794Z,82.07
2023-01-28T05:50:37.255Z,81.34
2023-01-28T05:51:09.723Z,81.55
2023-01-28T05:51:42.142Z,82.70
2023-01-28T05:52:14.633Z,83.84
2023-01-28T05:52:47.039Z,85.51
2023-01-28T05:53:19.469Z,86.55
2023-01-28T05:53:51.911Z,87.70
2023-01-28T05:54:24.432Z,87.28
2023-01-28T05:54:56.873Z,87.28
2023-01-28T05:55:29.311Z,87.18
2023-01-28T05:56:02.194Z,86.66
2023-01-28T05:56:34.635Z,86.55
2023-01-28T05:57:07.140Z,85.20
2023-01-28T05:57:39.578Z,84.57
2023-01-28T05:58:12.005Z,84.47
2023-01-28T05:58:44.572Z,83.63
2023-01-28T05:59:17.017Z,85.61
2023-01-28T05:59:49.461Z,87.49
2023-01-28T06:00:21.887Z,86.66
2023-01-28T06:00:54.338Z,86.13
2023-01-28T06:01:26.803Z,85.51
2023-01-28T06:01:59.278Z,84.99
2023-01-28T06:02:31.920Z,85.82
2023-01-28T06:03:04.404Z,86.97
2023-01-28T06:03:36.844Z,87.39
2023-01-28T06:04:09.269Z,87.91
2023-01-28T06:04:41.718Z,90.10
2023-01-28T06:05:14.170Z,91.04
2023-01-28T06:05:46.588Z,90.31
2023-01-28T06:06:19.088Z,90.10
2023-01-28T06:06:51.555Z,88.95
2023-01-28T06:07:24.080Z,88.75
2023-01-28T06:07:56.562Z,88.53
2023-01-28T06:08:28.987Z,89.06
2023-01-28T06:09:01.422Z,90.10
2023-01-28T06:09:33.925Z,89.37
2023-01-28T06:10:06.409Z,89.68
2023-01-28T06:10:38.849Z,89.68
2023-01-28T06:11:11.343Z,89.68
2023-01-28T06:11:43.791Z,88.75
2023-01-28T06:12:16.268Z,86.45
2023-01-28T06:12:48.719Z,85.51
2023-01-28T06:13:21.176Z,85.30
2023-01-28T06:13:53.625Z,84.36
2023-01-28T06:14:26.124Z,83.74
2023-01-28T06:14:58.577Z,84.05
2023-01-28T06:15:31.075Z,84.26
2023-01-28T06:16:03.510Z,84.78
2023-01-28T06:16:35.929Z,85.51
2023-01-28T06:17:08.487Z,86.55
2023-01-28T06:17:40.912Z,87.28
2023-01-28T06:18:13.354Z,87.60
2023-01-28T06:18:45.802Z,87.70
2023-01-28T06:19:18.225Z,87.28
2023-01-28T06:19:50.678Z,86.97
2023-01-28T06:20:23.105Z,87.49
2023-01-28T06:20:55.612Z,86.03
2023-01-28T06:21:30.054Z,85.10
2023-01-28T06:22:00.484Z,86.03
2023-01-28T06:22:32.922Z,86.87
2023-01-28T06:23:05.405Z,87.81
2023-01-28T06:23:37.872Z,88.75
2023-01-28T06:24:10.334Z,89.06
2023-01-28T06:24:42.765Z,89.58
2023-01-28T06:25:15.198Z,90.52
2023-01-28T06:25:47.647Z,91.14
2023-01-28T06:26:20.077Z,90.83
2023-01-28T06:26:52.531Z,91.97
2023-01-28T06:27:25.037Z,93.33
2023-01-28T06:27:57.454Z,94.17
2023-01-28T06:28:29.902Z,94.06
2023-01-28T06:29:02.386Z,93.02
2023-01-28T06:29:34.833Z,91.97
2023-01-28T06:30:07.255Z,91.50
2023-01-28T06:30:39.783Z,90.62
2023-01-28T06:31:12.169Z,90.35
2023-01-28T06:31:44.704Z,89.89
2023-01-28T06:32:17.049Z,90.03
2023-01-28T06:32:49.468Z,90.35
2023-01-28T06:33:21.896Z,90.41
2023-01-28T06:33:54.387Z,90.31
2023-01-28T06:34:26.822Z,90.41
2023-01-28T06:34:59.277Z,90.72
2023-01-28T06:35:31.714Z,90.62
2023-01-28T06:36:04.187Z,90.00
2023-01-28T06:36:36.598Z,89.68
2023-01-28T06:37:09.013Z,89.26
2023-01-28T06:37:41.453Z,88.95
2023-01-28T06:38:13.905Z,89.37
2023-01-28T06:38:46.311Z,89.06
2023-01-28T06:39:18.766Z,88.43
2023-01-28T06:39:51.190Z,87.81
2023-01-28T06:40:23.675Z,87.91
2023-01-28T06:40:56.180Z,88.22
2023-01-28T06:41:28.503Z,88.75
2023-01-28T06:42:00.931Z,89.78
2023-01-28T06:42:33.355Z,89.78
2023-01-28T06:43:05.808Z,88.95
2023-01-28T06:43:38.251Z,88.37
2023-01-28T06:44:10.673Z,87.84
2023-01-28T06:44:43.185Z,87.84
2023-01-28T06:45:15.600Z,88.57
2023-01-28T06:45:48.040Z,89.10
2023-01-28T06:46:20.503Z,88.78
2023-01-28T06:46:52.958Z,88.75
2023-01-28T06:47:25.389Z,89.51
2023-01-28T06:47:57.851Z,90.00
2023-01-28T06:48:30.286Z,90.35
2023-01-28T06:49:02.741Z,90.31
2023-01-28T06:49:35.197Z,90.45
2023-01-28T06:50:07.605Z,90.31
2023-01-28T06:50:40.036Z,90.20
2023-01-28T06:51:12.469Z,90.72
2023-01-28T06:51:44.929Z,90.83
2023-01-28T06:52:17.398Z,90.93
2023-01-28T06:52:49.824Z,90.93
2023-01-28T06:53:22.224Z,90.83
2023-01-28T06:53:54.711Z,90.52
2023-01-28T06:54:27.149Z,90.31
2023-01-28T06:54:59.593Z,88.75
2023-01-28T06:55:32.012Z,88.22
2023-01-28T06:56:04.433Z,89.06
2023-01-28T06:56:36.984Z,89.37
2023-01-28T06:57:09.458Z,89.68
2023-01-28T06:57:41.998Z,89.78
2023-01-28T06:58:14.456Z,89.89